createdAt,value
2023-06-29T00:02:05.849Z,18.18
2023-06-29T00:04:54.927Z,17.96
2023-06-29T00:07:43.339Z,18.10
2023-06-29T00:10:31.186Z,18.20
2023-06-29T00:13:19.123Z,18.18
2023-06-29T00:16:08.487Z,18.46
2023-06-29T00:18:56.521Z,18.41
2023-06-29T00:21:49.262Z,18.20
2023-06-29T00:24:43.699Z,17.95
2023-06-29T00:27:31.571Z,18.39
2023-06-29T00:30:19.477Z,18.49
2023-06-29T00:33:08.987Z,17.90
2023-06-29T00:35:56.909Z,18.67
2023-06-29T00:38:44.815Z,18.89
2023-06-29T00:41:32.753Z,18.83
2023-06-29T00:44:20.695Z,18.62
2023-06-29T00:47:09.399Z,18.21
2023-06-29T00:49:58.746Z,17.86
2023-06-29T00:52:46.743Z,17.93
2023-06-29T00:55:35.025Z,17.98
2023-06-29T00:58:22.841Z,18.09
2023-06-29T01:01:11.027Z,17.81
2023-06-29T01:03:59.241Z,17.93
2023-06-29T01:06:55.577Z,17.60
2023-06-29T01:09:45.716Z,17.91
2023-06-29T01:12:35.690Z,17.55
2023-06-29T01:15:24.207Z,17.96
2023-06-29T01:18:14.562Z,18.24
2023-06-29T01:21:04.740Z,17.87
2023-06-29T01:23:57.551Z,17.76
2023-06-29T01:26:48.929Z,17.53
2023-06-29T01:29:37.019Z,17.82
2023-06-29T01:32:27.439Z,17.62
2023-06-29T01:35:15.741Z,17.73
2023-06-29T01:38:09.009Z,17.58
2023-06-29T01:40:59.953Z,17.86
2023-06-29T01:43:49.740Z,17.54
2023-06-29T01:46:38.317Z,17.90
2023-06-29T01:49:26.325Z,17.34
2023-06-29T01:52:14.482Z,17.74
2023-06-29T01:55:02.293Z,17.50
2023-06-29T01:57:50.324Z,17.24
2023-06-29T02:00:39.616Z,17.71
2023-06-29T02:03:27.560Z,17.78
2023-06-29T02:06:15.668Z,17.50
2023-06-29T02:09:03.533Z,17.37
2023-06-29T02:11:51.395Z,17.53
2023-06-29T02:14:39.349Z,17.45
2023-06-29T02:17:28.770Z,17.65
2023-06-29T02:20:18.557Z,17.16
2023-06-29T02:23:06.665Z,16.84
2023-06-29T02:25:54.577Z,17.03
2023-06-29T02:28:42.569Z,16.41
2023-06-29T02:31:31.030Z,16.82
2023-06-29T02:34:20.447Z,16.45
2023-06-29T02:37:08.378Z,16.50
2023-06-29T02:39:56.416Z,16.48
2023-06-29T02:42:44.260Z,15.63
2023-06-29T02:45:32.092Z,16.78
2023-06-29T02:48:19.944Z,16.54
2023-06-29T02:51:09.261Z,16.42
2023-06-29T02:53:57.173Z,16.08
2023-06-29T02:56:44.952Z,16.49
2023-06-29T02:59:32.990Z,16.40
2023-06-29T03:02:20.840Z,16.19
2023-06-29T03:05:09.673Z,16.18
2023-06-29T03:07:58.810Z,16.96
2023-06-29T03:10:46.721Z,16.25
2023-06-29T03:13:34.599Z,16.32
2023-06-29T03:16:22.483Z,16.14
2023-06-29T03:19:10.502Z,16.08
2023-06-29T03:21:58.377Z,15.86
2023-06-29T03:24:47.812Z,16.26
2023-06-29T03:27:35.693Z,16.17
2023-06-29T03:30:23.762Z,16.48
2023-06-29T03:33:11.610Z,16.29
2023-06-29T03:35:59.654Z,16.25
2023-06-29T03:38:47.692Z,16.30
2023-06-29T03:41:36.869Z,16.05
2023-06-29T03:44:24.635Z,16.52
2023-06-29T03:47:12.626Z,16.56
2023-06-29T03:50:00.469Z,16.46
2023-06-29T03:52:48.337Z,16.38
2023-06-29T03:55:36.339Z,16.36
2023-06-29T03:58:25.527Z,15.95
2023-06-29T04:01:13.571Z,15.98
2023-06-29T04:04:01.369Z,16.06
2023-06-29T04:06:49.434Z,15.99
2023-06-29T04:09:37.281Z,16.14
2023-06-29T04:12:25.377Z,16.13
2023-06-29T04:15:14.598Z,15.97
2023-06-29T04:18:02.905Z,16.01
2023-06-29T04:20:50.829Z,15.78
2023-06-29T04:23:38.704Z,15.92
2023-06-29T04:26:29.126Z,16.21
2023-06-29T04:29:17.507Z,16.24
2023-06-29T04:32:07.098Z,16.02
2023-06-29T04:34:54.900Z,16.23
2023-06-29T04:37:45.517Z,16.05
2023-06-29T04:40:33.291Z,16.33
2023-06-29T04:43:21.794Z,16.19
2023-06-29T04:46:09.649Z,16.32
2023-06-29T04:49:06.392Z,16.47
2023-06-29T04:51:58.433Z,16.40
2023-06-29T04:54:48.295Z,16.32
2023-06-29T04:57:36.029Z,16.60
2023-06-29T05:00:23.942Z,16.67
2023-06-29T05:03:11.754Z,16.42
2023-06-29T05:06:01.109Z,16.54
2023-06-29T05:08:49.432Z,16.40
2023-06-29T05:11:37.434Z,16.80
2023-06-29T05:14:25.367Z,16.46
2023-06-29T05:17:13.482Z,16.61
2023-06-29T05:20:01.255Z,16.59
2023-06-29T05:22:50.708Z,16.66
2023-06-29T05:25:38.892Z,16.60
2023-06-29T05:28:26.812Z,15.38
2023-06-29T05:31:16.399Z,16.52
2023-06-29T05:34:04.513Z,16.66
2023-06-29T05:36:52.426Z,16.49
2023-06-29T05:39:41.930Z,16.76
2023-06-29T05:42:29.976Z,16.68
2023-06-29T05:45:17.970Z,16.71
2023-06-29T05:48:06.991Z,16.67
2023-06-29T05:50:54.914Z,16.59
2023-06-29T05:53:42.816Z,16.70
2023-06-29T05:56:32.084Z,16.90
2023-06-29T05:59:19.916Z,17.10
2023-06-29T06:02:07.852Z,17.11
2023-06-29T06:04:55.555Z,16.83
2023-06-29T06:07:43.474Z,17.09
2023-06-29T06:10:31.267Z,17.01
2023-06-29T06:13:20.481Z,17.01
2023-06-29T06:16:08.623Z,16.98
2023-06-29T06:18:56.724Z,17.04
2023-06-29T06:21:44.634Z,17.20
2023-06-29T06:24:32.802Z,17.20
2023-06-29T06:27:20.606Z,17.42
2023-06-29T06:30:10.932Z,17.39
2023-06-29T06:33:02.645Z,17.88
2023-06-29T06:35:50.489Z,17.97
2023-06-29T06:38:49.598Z,17.81
2023-06-29T06:41:38.060Z,18.10
2023-06-29T06:44:25.801Z,18.12
2023-06-29T06:47:15.021Z,18.29
2023-06-29T06:50:03.317Z,18.57
2023-06-29T06:52:51.301Z,18.54
2023-06-29T06:55:39.011Z,18.44
2023-06-29T06:58:27.023Z,18.44
2023-06-29T07:01:14.940Z,18.07
2023-06-29T07:04:04.495Z,18.21
2023-06-29T07:06:52.263Z,18.35
2023-06-29T07:09:40.577Z,18.30
2023-06-29T07:12:28.412Z,18.55
2023-06-29T07:15:17.715Z,18.47
2023-06-29T07:18:05.742Z,18.65
2023-06-29T07:26:39.383Z,18.85
2023-06-29T07:29:27.853Z,19.48
2023-06-29T07:32:15.658Z,19.34
2023-06-29T07:35:03.424Z,19.44
2023-06-29T07:37:52.637Z,19.48
2023-06-29T07:40:40.803Z,19.31
2023-06-29T07:43:28.822Z,19.34
2023-06-29T07:46:16.908Z,19.44
2023-06-29T07:49:04.955Z,19.53
2023-06-29T07:51:52.699Z,19.89
2023-06-29T07:54:43.209Z,19.99
2023-06-29T08:00:23.263Z,19.69
2023-06-29T08:03:11.595Z,19.86
2023-06-29T08:08:52.742Z,20.18
2023-06-29T08:11:42.137Z,20.00
2023-06-29T08:14:30.059Z,20.15
2023-06-29T08:17:18.077Z,19.89
2023-06-29T08:20:10.908Z,20.15
2023-06-29T08:22:58.990Z,20.13
2023-06-29T08:25:46.986Z,19.97
2023-06-29T08:28:36.541Z,20.31
2023-06-29T08:31:24.604Z,20.49
2023-06-29T08:34:12.615Z,20.24
2023-06-29T08:37:00.408Z,20.69
2023-06-29T08:39:48.321Z,20.81
2023-06-29T08:42:38.380Z,20.93
2023-06-29T08:45:27.608Z,20.68
2023-06-29T08:48:16.515Z,20.89
2023-06-29T08:51:05.770Z,20.81
2023-06-29T08:53:55.055Z,21.13
2023-06-29T08:56:43.392Z,21.05
2023-06-29T08:59:31.525Z,21.05
2023-06-29T09:02:21.427Z,21.01
2023-06-29T09:05:13.230Z,21.14
2023-06-29T09:08:01.328Z,21.28
2023-06-29T09:10:49.132Z,21.18
2023-06-29T09:13:37.941Z,21.21
2023-06-29T09:16:30.996Z,21.35
2023-06-29T09:19:20.696Z,20.82
2023-06-29T09:22:09.705Z,21.16
2023-06-29T09:25:07.745Z,21.17
2023-06-29T09:28:07.640Z,21.43
2023-06-29T09:30:56.349Z,21.42
2023-06-29T09:33:44.264Z,21.34
2023-06-29T09:36:33.408Z,21.39
2023-06-29T09:39:22.254Z,21.32
2023-06-29T09:42:10.713Z,21.43
2023-06-29T09:45:03.237Z,21.42
2023-06-29T09:50:50.552Z,21.71
2023-06-29T09:53:40.397Z,21.67
2023-06-29T09:56:29.097Z,21.78
2023-06-29T09:59:17.725Z,21.53
2023-06-29T10:02:06.040Z,21.84
2023-06-29T10:04:54.866Z,21.81
2023-06-29T10:07:44.068Z,22.01
2023-06-29T10:10:36.531Z,22.17
2023-06-29T10:13:25.740Z,22.25
2023-06-29T10:16:16.585Z,22.35
2023-06-29T10:19:16.066Z,22.24
2023-06-29T10:22:07.510Z,22.24
2023-06-29T10:24:59.653Z,22.50
2023-06-29T10:27:53.152Z,22.57
2023-06-29T10:30:48.250Z,22.65
2023-06-29T10:33:47.309Z,22.46
2023-06-29T10:36:54.237Z,22.43
2023-06-29T10:39:45.291Z,22.62
2023-06-29T10:42:56.910Z,22.78
2023-06-29T10:45:44.758Z,22.73
2023-06-29T10:48:46.997Z,22.82
2023-06-29T10:51:36.626Z,22.89
2023-06-29T10:54:24.857Z,23.07
2023-06-29T10:57:12.919Z,23.12
2023-06-29T11:00:02.406Z,22.78
2023-06-29T11:02:51.015Z,23.09
2023-06-29T11:05:39.186Z,22.86
2023-06-29T11:08:27.907Z,22.90
2023-06-29T11:11:16.471Z,22.94
2023-06-29T11:14:05.078Z,23.09
2023-06-29T11:16:56.824Z,22.97
2023-06-29T11:19:46.691Z,23.01
2023-06-29T11:22:34.769Z,23.09
2023-06-29T11:25:22.569Z,22.76
2023-06-29T11:28:10.564Z,23.00
2023-06-29T11:30:58.364Z,23.27
2023-06-29T11:33:51.044Z,23.18
2023-06-29T11:36:39.679Z,23.45
2023-06-29T11:39:27.500Z,23.36
2023-06-29T11:42:20.330Z,23.56
2023-06-29T11:45:09.385Z,23.71
2023-06-29T11:47:58.393Z,23.39
2023-06-29T11:50:50.013Z,23.61
2023-06-29T11:53:38.069Z,23.67
2023-06-29T11:56:26.773Z,23.86
2023-06-29T11:59:16.721Z,23.69
2023-06-29T12:02:05.947Z,23.60
2023-06-29T12:04:58.773Z,23.76
2023-06-29T12:07:49.603Z,23.71
2023-06-29T12:10:40.197Z,23.66
2023-06-29T12:13:28.015Z,23.50
2023-06-29T12:19:17.367Z,24.10
2023-06-29T12:22:07.142Z,23.79
2023-06-29T12:24:56.644Z,23.66
2023-06-29T12:27:45.821Z,23.45
2023-06-29T12:30:33.550Z,23.54
2023-06-29T12:33:21.462Z,23.55
2023-06-29T12:36:09.281Z,24.05
2023-06-29T12:38:57.547Z,24.16
2023-06-29T12:41:47.479Z,24.04
2023-06-29T12:44:36.776Z,24.23
2023-06-29T12:47:24.634Z,23.88
2023-06-29T12:50:13.037Z,23.93
2023-06-29T12:53:01.527Z,23.90
2023-06-29T12:55:49.378Z,23.88
2023-06-29T12:58:38.924Z,23.96
2023-06-29T13:01:26.839Z,23.90
2023-06-29T13:04:16.109Z,24.14
2023-06-29T13:07:04.672Z,24.19
2023-06-29T13:09:53.884Z,24.36
2023-06-29T13:12:43.059Z,24.47
2023-06-29T13:15:32.197Z,24.35
2023-06-29T13:18:20.297Z,24.61
2023-06-29T13:21:08.206Z,24.43
2023-06-29T13:23:56.181Z,24.97
2023-06-29T13:26:44.207Z,25.00
2023-06-29T13:29:32.326Z,24.51
2023-06-29T13:32:21.625Z,24.75
2023-06-29T13:35:10.548Z,24.61
2023-06-29T13:37:58.343Z,24.62
2023-06-29T13:40:46.154Z,24.56
2023-06-29T13:43:34.040Z,24.68
2023-06-29T13:46:21.869Z,24.30
2023-06-29T13:49:11.062Z,24.81
2023-06-29T13:51:58.871Z,24.54
2023-06-29T13:54:46.816Z,24.70
2023-06-29T13:57:34.707Z,24.72
2023-06-29T14:00:24.152Z,24.46
2023-06-29T14:03:12.019Z,24.79
2023-06-29T14:06:01.662Z,24.62
2023-06-29T14:08:49.709Z,24.33
2023-06-29T14:11:37.669Z,24.84
2023-06-29T14:14:25.387Z,24.96
2023-06-29T14:17:13.817Z,24.85
2023-06-29T14:20:01.752Z,24.78
2023-06-29T14:22:50.928Z,24.79
2023-06-29T14:25:39.172Z,24.74
2023-06-29T14:28:26.983Z,25.12
2023-06-29T14:31:16.602Z,24.89
2023-06-29T14:34:04.687Z,25.11
2023-06-29T14:36:52.540Z,24.94
2023-06-29T14:39:41.852Z,25.06
2023-06-29T14:42:29.779Z,25.35
2023-06-29T14:45:17.775Z,25.17
2023-06-29T14:48:05.886Z,24.87
2023-06-29T14:50:54.779Z,24.92
2023-06-29T14:53:42.659Z,24.89
2023-06-29T14:56:32.407Z,25.08
2023-06-29T14:59:20.342Z,24.80
2023-06-29T15:02:08.157Z,24.92
2023-06-29T15:04:56.149Z,25.00
2023-06-29T15:07:44.308Z,24.75
2023-06-29T15:10:32.365Z,24.36
2023-06-29T15:13:21.647Z,24.89
2023-06-29T15:16:09.701Z,24.71
2023-06-29T15:19:00.350Z,24.94
2023-06-29T15:21:48.509Z,24.61
2023-06-29T15:24:36.499Z,24.73
2023-06-29T15:27:24.434Z,24.93
2023-06-29T15:30:15.013Z,25.36
2023-06-29T15:33:02.952Z,24.40
2023-06-29T15:35:51.345Z,24.98
2023-06-29T15:38:39.613Z,24.99
2023-06-29T15:41:27.513Z,24.94
2023-06-29T15:44:15.337Z,24.77
2023-06-29T15:47:07.233Z,24.67
2023-06-29T15:49:55.261Z,24.69
2023-06-29T15:52:43.375Z,24.84
2023-06-29T15:55:31.425Z,25.01
2023-06-29T15:58:19.262Z,24.84
2023-06-29T16:01:07.206Z,25.09
2023-06-29T16:03:56.566Z,24.84
2023-06-29T16:06:47.435Z,24.91
2023-06-29T16:09:35.374Z,24.71
2023-06-29T16:12:23.118Z,24.64
2023-06-29T16:15:11.825Z,24.69
2023-06-29T16:17:59.811Z,24.44
2023-06-29T16:20:49.849Z,24.61
2023-06-29T16:23:39.365Z,24.44
2023-06-29T16:26:27.130Z,24.49
2023-06-29T16:29:15.052Z,24.40
2023-06-29T16:32:03.230Z,24.59
2023-06-29T16:34:51.911Z,24.09
2023-06-29T16:37:42.128Z,24.22
2023-06-29T16:40:30.157Z,24.50
2023-06-29T16:43:17.998Z,24.55
2023-06-29T16:46:06.002Z,24.46
2023-06-29T16:48:58.715Z,24.41
2023-06-29T16:51:46.822Z,24.03
2023-06-29T16:54:36.399Z,24.42
2023-06-29T16:57:24.192Z,24.12
2023-06-29T17:00:13.174Z,24.46
2023-06-29T17:03:01.206Z,24.40
2023-06-29T17:05:49.240Z,23.97
2023-06-29T17:08:38.594Z,23.87
2023-06-29T17:11:28.008Z,23.67
2023-06-29T17:14:15.742Z,23.73
2023-06-29T17:17:03.696Z,24.00
2023-06-29T17:19:52.321Z,24.31
2023-06-29T17:22:40.118Z,24.55
2023-06-29T17:25:28.094Z,24.31
2023-06-29T17:28:18.056Z,24.24
2023-06-29T17:31:06.095Z,23.75
2023-06-29T17:33:56.038Z,23.91
2023-06-29T17:36:43.852Z,24.15
2023-06-29T17:39:31.794Z,24.25
2023-06-29T17:42:24.285Z,24.02
2023-06-29T17:45:14.877Z,23.59
2023-06-29T17:48:02.790Z,23.49
2023-06-29T17:50:53.209Z,24.07
2023-06-29T17:53:42.125Z,24.51
2023-06-29T17:56:31.163Z,24.44
2023-06-29T17:59:18.951Z,23.55
2023-06-29T18:02:08.457Z,24.31
2023-06-29T18:04:58.604Z,24.32
2023-06-29T18:07:47.389Z,24.11
2023-06-29T18:10:35.388Z,24.25
2023-06-29T18:13:23.209Z,24.31
2023-06-29T18:16:11.849Z,23.40
2023-06-29T18:19:01.006Z,23.88
2023-06-29T18:21:48.978Z,23.96
2023-06-29T18:24:37.139Z,23.70
2023-06-29T18:27:25.006Z,23.40
2023-06-29T18:30:14.413Z,23.40
2023-06-29T18:33:02.303Z,23.24
2023-06-29T18:35:51.896Z,23.63
2023-06-29T18:38:39.780Z,23.07
2023-06-29T18:41:30.082Z,23.24
2023-06-29T18:44:18.301Z,22.92
2023-06-29T18:47:11.072Z,22.97
2023-06-29T18:49:59.205Z,22.84
2023-06-29T18:52:48.519Z,23.16
2023-06-29T18:55:36.705Z,22.88
2023-06-29T18:58:24.357Z,23.72
2023-06-29T19:01:12.281Z,23.89
2023-06-29T19:04:00.346Z,23.61
2023-06-29T19:06:48.247Z,23.10
2023-06-29T19:09:37.416Z,23.24
2023-06-29T19:12:25.408Z,23.14
2023-06-29T19:15:14.790Z,23.52
2023-06-29T19:18:02.906Z,23.25
2023-06-29T19:20:51.983Z,22.73
2023-06-29T19:23:44.040Z,23.14
2023-06-29T19:26:33.503Z,23.69
2023-06-29T19:29:21.365Z,23.61
2023-06-29T19:32:10.604Z,23.43
2023-06-29T19:34:58.679Z,22.85
2023-06-29T19:37:46.535Z,22.87
2023-06-29T19:40:34.573Z,22.11
2023-06-29T19:43:23.785Z,22.76
2023-06-29T19:46:12.053Z,22.68
2023-06-29T19:49:00.197Z,23.06
2023-06-29T19:51:48.015Z,23.22
2023-06-29T19:54:35.877Z,22.97
2023-06-29T19:57:23.797Z,22.74
2023-06-29T20:00:13.838Z,22.84
2023-06-29T20:03:01.846Z,22.68
2023-06-29T20:05:50.194Z,22.80
2023-06-29T20:08:38.252Z,22.50
2023-06-29T20:11:26.219Z,22.15
2023-06-29T20:14:14.031Z,22.29
2023-06-29T20:17:03.521Z,22.13
2023-06-29T20:19:51.299Z,22.05
2023-06-29T20:22:38.996Z,21.92
2023-06-29T20:25:27.860Z,22.22
2023-06-29T20:28:15.923Z,22.25
2023-06-29T20:31:03.967Z,22.27
2023-06-29T20:33:53.461Z,22.02
2023-06-29T20:36:41.571Z,21.96
2023-06-29T20:39:30.284Z,22.14
2023-06-29T20:42:18.373Z,22.19
2023-06-29T20:45:07.498Z,21.99
2023-06-29T20:47:55.466Z,21.91
2023-06-29T20:50:44.919Z,21.99
2023-06-29T20:53:32.836Z,21.88
2023-06-29T20:56:20.909Z,21.89
2023-06-29T20:59:08.715Z,22.06
2023-06-29T21:01:56.657Z,21.77
2023-06-29T21:04:44.811Z,21.91
2023-06-29T21:07:34.484Z,22.26
2023-06-29T21:10:22.341Z,21.60
2023-06-29T21:13:10.546Z,21.16
2023-06-29T21:15:58.580Z,21.18
2023-06-29T21:18:46.796Z,21.25
2023-06-29T21:21:35.334Z,21.30
2023-06-29T21:24:24.934Z,21.20
2023-06-29T21:27:15.315Z,21.44
2023-06-29T21:30:04.752Z,21.45
2023-06-29T21:32:53.246Z,20.96
2023-06-29T21:35:41.500Z,21.14
2023-06-29T21:38:32.169Z,20.98
2023-06-29T21:41:21.637Z,20.99
2023-06-29T21:44:09.373Z,20.46
2023-06-29T21:46:57.503Z,19.88
2023-06-29T21:49:45.554Z,20.63
2023-06-29T21:52:33.542Z,20.93
2023-06-29T21:55:21.569Z,20.74
2023-06-29T21:58:12.116Z,20.11
2023-06-29T22:01:00.247Z,20.10
2023-06-29T22:03:48.545Z,19.96
2023-06-29T22:06:36.489Z,20.03
2023-06-29T22:09:24.309Z,20.04
2023-06-29T22:12:13.108Z,20.06
2023-06-29T22:15:02.433Z,19.72
2023-06-29T22:17:50.605Z,19.72
2023-06-29T22:20:38.444Z,19.57
2023-06-29T22:23:26.377Z,19.48
2023-06-29T22:26:14.320Z,19.41
2023-06-29T22:29:02.400Z,19.36
2023-06-29T22:31:51.661Z,19.33
2023-06-29T22:34:39.519Z,19.27
2023-06-29T22:37:27.752Z,19.12
2023-06-29T22:40:15.841Z,18.94
2023-06-29T22:43:03.687Z,19.02
2023-06-29T22:45:51.728Z,18.99
2023-06-29T22:48:42.207Z,18.89
2023-06-29T22:51:30.171Z,19.07
2023-06-29T22:54:18.227Z,18.70
2023-06-29T22:57:06.388Z,18.79
2023-06-29T22:59:55.055Z,18.56
2023-06-29T23:02:42.851Z,18.39
2023-06-29T23:05:32.066Z,18.71
2023-06-29T23:08:20.164Z,18.72
2023-06-29T23:11:08.897Z,18.74
2023-06-29T23:13:57.073Z,18.66
2023-06-29T23:16:47.445Z,18.70
2023-06-29T23:19:36.178Z,18.46
2023-06-29T23:22:25.674Z,18.51
2023-06-29T23:25:13.774Z,18.67
2023-06-29T23:28:04.443Z,18.58
2023-06-29T23:30:52.431Z,18.52
2023-06-29T23:33:40.364Z,18.61
2023-06-29T23:36:28.868Z,18.61
2023-06-29T23:39:18.340Z,18.26
2023-06-29T23:42:07.144Z,18.18
2023-06-29T23:44:55.341Z,17.65
2023-06-29T23:47:43.238Z,18.57
2023-06-29T23:50:32.002Z,18.34
2023-06-29T23:53:19.952Z,18.20
2023-06-29T23:56:08.923Z,18.15
2023-06-29T23:58:56.911Z,18.23
